Time;durP1;ratioP1;P1;durP2;ratioP2;P2;SDS_P1;SDS_P2;PMS_P1;PMS_P2;Temp;Humidity;BMP_temperature;BMP_pressure;BME280_temperature;BME280_humidity;BME280_pressure;Samples;Min_cycle;Max_cycle;Signal;HPM_P1;HPM_P2
2023/12/24 00:00:01;;;;;;;15.30;3.50;;;;;;;14.39;48.22;100487.41;4875079;29;20378;-81
2023/12/24 00:02:27;;;;;;;14.07;3.38;;;;;;;14.51;48.03;100491.44;4867284;29;20062;-79
2023/12/24 00:04:54;;;;;;;14.02;4.10;;;;;;;13.69;47.98;100373.81;4892388;29;20414;-81
2023/12/24 00:07:24;;;;;;;14.10;3.35;;;;;;;14.40;48.01;100486.44;4902466;29;20051;-82
2023/12/24 00:09:51;;;;;;;12.10;3.10;;;;;;;14.03;47.59;100428.91;4889600;29;20094;-81
2023/12/24 00:12:17;;;;;;;8.27;3.88;;;;;;;14.23;47.63;100462.34;4893059;29;20060;-80
2023/12/24 00:14:50;;;;;;;15.05;3.30;;;;;;;13.99;47.66;100419.59;4895743;29;20059;-81
2023/12/24 00:17:21;;;;;;;10.57;2.80;;;;;;;14.51;47.55;100508.31;4897044;29;20421;-81
2023/12/24 00:19:48;;;;;;;9.93;3.38;;;;;;;14.48;47.37;100505.13;4902374;28;20047;-81
2023/12/24 00:22:15;;;;;;;10.32;4.43;;;;;;;14.36;47.67;100493.09;4913246;29;20464;-81
2023/12/24 00:24:49;;;;;;;15.35;3.83;;;;;;;14.40;47.27;100491.78;4871413;29;20419;-81
2023/12/24 00:27:22;;;;;;;12.63;3.35;;;;;;;14.42;47.62;100492.44;4878209;29;20460;-80
2023/12/24 00:29:49;;;;;;;16.83;3.60;;;;;;;14.35;46.84;100464.72;4896124;29;20044;-80
2023/12/24 00:32:16;;;;;;;11.57;3.25;;;;;;;14.60;46.98;100519.03;4865961;29;20052;-80
2023/12/24 00:34:48;;;;;;;8.88;2.70;;;;;;;14.62;46.83;100511.72;4878938;29;20133;-80
2023/12/24 00:37:16;;;;;;;13.50;3.47;;;;;;;14.54;46.72;100507.19;4901236;29;20455;-81
2023/12/24 00:39:45;;;;;;;8.23;3.38;;;;;;;14.43;46.19;100494.09;4909679;29;20540;-81
2023/12/24 00:42:11;;;;;;;13.35;4.18;;;;;;;14.27;46.23;100482.41;4897747;29;20052;-79
2023/12/24 00:44:43;;;;;;;15.10;3.63;;;;;;;14.46;46.52;100520.47;4889660;29;20051;-81
2023/12/24 00:47:10;;;;;;;;;;;;;;;14.51;45.82;100519.00;4898616;29;20058;-81
2023/12/24 00:49:37;;;;;;;14.43;3.28;;;;;;;14.36;46.25;100509.13;4909742;28;19923;-80
2023/12/24 00:52:06;;;;;;;13.57;3.05;;;;;;;14.32;46.48;100525.47;4879815;29;20140;-80
2023/12/24 00:54:33;;;;;;;7.22;3.10;;;;;;;14.21;46.50;100507.06;4890243;29;20056;-79
2023/12/24 00:57:08;;;;;;;10.15;2.78;;;;;;;14.24;46.29;100506.75;4872057;29;20149;-82
2023/12/24 00:59:48;;;;;;;7.93;2.58;;;;;;;14.35;46.61;100526.16;4866209;28;20048;-81
2023/12/24 01:02:29;;;;;;;11.98;3.03;;;;;;;14.31;46.40;100523.78;4867553;29;20484;-81
2023/12/24 01:04:57;;;;;;;9.07;3.05;;;;;;;14.41;46.21;100544.19;4891166;29;20063;-81
2023/12/24 01:07:25;;;;;;;12.32;2.72;;;;;;;14.65;45.42;100536.25;4865894;29;20478;-81
2023/12/24 01:09:55;;;;;;;9.38;2.50;;;;;;;14.14;45.35;100471.34;4890916;29;20063;-80
2023/12/24 01:12:22;;;;;;;15.45;3.30;;;;;;;14.57;45.38;100522.88;4895985;29;20087;-79
2023/12/24 01:14:56;;;;;;;7.25;3.15;;;;;;;14.31;45.40;100507.75;4897548;29;20553;-80
2023/12/24 01:17:28;;;;;;;9.45;2.75;;;;;;;14.41;45.91;100520.13;4895809;29;20075;-80
2023/12/24 01:20:04;;;;;;;10.13;3.35;;;;;;;14.54;45.84;100552.59;4875168;29;20475;-81
2023/12/24 01:22:43;;;;;;;10.88;3.25;;;;;;;14.39;45.65;100530.16;4847123;29;20058;-81
2023/12/24 01:25:17;;;;;;;8.93;2.47;;;;;;;14.36;44.87;100498.44;4850264;29;20555;-81
2023/12/24 01:27:58;;;;;;;9.57;2.35;;;;;;;14.45;44.52;100498.28;4882402;29;20131;-80
2023/12/24 01:30:25;;;;;;;7.55;2.63;;;;;;;14.56;44.13;100544.41;4895133;29;20399;-80
2023/12/24 01:32:51;;;;;;;7.18;2.45;;;;;;;14.35;44.46;100518.13;4918647;29;20078;-79
2023/12/24 01:35:20;;;;;;;11.40;3.50;;;;;;;14.66;44.16;100550.44;4917250;28;20323;-81
2023/12/24 01:37:46;;;;;;;10.38;2.63;;;;;;;14.63;43.50;100542.75;4906641;29;20521;-82
2023/12/24 01:40:16;;;;;;;8.32;2.75;;;;;;;14.45;43.43;100526.84;4915541;29;20150;-81
2023/12/24 01:42:45;;;;;;;7.28;2.05;;;;;;;14.48;43.84;100539.84;4926008;29;20503;-81
2023/12/24 01:45:17;;;;;;;7.57;3.42;;;;;;;14.29;44.00;100528.44;4917410;29;20059;-80
2023/12/24 01:47:44;;;;;;;11.70;2.20;;;;;;;14.50;44.22;100559.22;4911251;29;20051;-82
2023/12/24 01:50:27;;;;;;;7.43;2.85;;;;;;;14.61;44.08;100568.78;4889415;28;20060;-80
2023/12/24 01:53:08;;;;;;;7.80;2.45;;;;;;;14.36;43.65;100533.16;4853530;29;20348;-80
2023/12/24 01:55:57;;;;;;;11.35;3.08;;;;;;;14.61;43.59;100580.34;4861614;29;20634;-80
2023/12/24 01:58:34;;;;;;;10.23;2.92;;;;;;;14.42;44.10;100576.06;4849808;28;20199;-81
2023/12/24 02:01:09;;;;;;;12.93;3.13;;;;;;;14.02;44.00;100532.19;4852413;29;20118;-79
2023/12/24 02:03:36;;;;;;;10.95;3.20;;;;;;;14.32;44.32;100597.56;4898936;29;20063;-80
2023/12/24 02:06:05;;;;;;;13.90;3.55;;;;;;;14.24;44.73;100624.22;4916092;29;20047;-83
2023/12/24 02:08:32;;;;;;;9.95;4.47;;;;;;;13.84;45.79;100598.16;4926716;29;20519;-82
2023/12/24 02:10:59;;;;;;;10.02;4.53;;;;;;;13.65;46.10;100621.38;4902782;29;20266;-80
2023/12/24 02:13:26;;;;;;;14.50;4.63;;;;;;;13.29;46.85;100611.75;4892296;29;20054;-81
2023/12/24 02:15:57;;;;;;;10.50;5.05;;;;;;;12.87;47.46;100593.69;4880584;29;20893;-81
2023/12/24 02:18:27;;;;;;;11.60;5.35;;;;;;;12.86;47.92;100606.16;4898156;28;20612;-80
2023/12/24 02:21:12;;;;;;;15.63;5.65;;;;;;;12.30;48.46;100533.50;4879296;29;20510;-80
2023/12/24 02:23:39;;;;;;;11.02;4.72;;;;;;;12.37;48.63;100584.31;4893363;29;20181;-81
2023/12/24 02:26:41;;;;;;;19.63;5.30;;;;;;;12.53;48.84;100626.28;4876480;29;20761;-82
2023/12/24 02:29:22;;;;;;;9.15;5.40;;;;;;;12.14;48.62;100552.78;4876519;28;20273;-82
2023/12/24 02:31:59;;;;;;;10.50;5.45;;;;;;;12.33;49.49;100601.56;4916384;28;20524;-80
2023/12/24 02:34:28;;;;;;;12.18;5.05;;;;;;;12.12;49.99;100602.66;4929982;28;20458;-80
2023/12/24 02:36:56;;;;;;;15.02;5.30;;;;;;;11.92;50.37;100601.06;4910242;28;20051;-79
2023/12/24 02:39:22;;;;;;;11.75;4.80;;;;;;;11.94;50.48;100604.41;4895678;28;20050;-79
2023/12/24 02:41:49;;;;;;;12.82;5.25;;;;;;;11.94;50.13;100580.44;4902773;28;20529;-79
2023/12/24 02:44:16;;;;;;;14.30;6.32;;;;;;;12.02;50.89;100611.69;4904838;28;20398;-81
2023/12/24 02:46:43;;;;;;;10.52;5.00;;;;;;;11.65;51.38;100562.75;4910056;28;20345;-81
2023/12/24 02:49:14;;;;;;;14.30;5.45;;;;;;;11.86;51.21;100599.78;4906511;29;20079;-80
2023/12/24 02:51:44;;;;;;;14.73;5.55;;;;;;;11.86;51.52;100588.31;4887842;29;20048;-79
2023/12/24 02:54:14;;;;;;;9.82;4.55;;;;;;;11.97;51.36;100598.81;4910165;29;20059;-81
2023/12/24 02:56:41;;;;;;;9.75;4.35;;;;;;;11.51;51.26;100533.97;4884601;29;20048;-80
2023/12/24 02:59:08;;;;;;;7.15;4.00;;;;;;;11.45;50.20;100487.50;4867261;29;20397;-81
2023/12/24 03:01:42;;;;;;;8.32;3.88;;;;;;;12.28;50.63;100607.38;4883803;29;20094;-81
2023/12/24 03:04:11;;;;;;;11.70;2.92;;;;;;;12.40;50.94;100592.00;4892669;29;20063;-81
2023/12/24 03:06:40;;;;;;;12.98;5.68;;;;;;;12.26;50.13;100597.81;4892768;29;20051;-80
2023/12/24 03:09:07;;;;;;;14.43;6.97;;;;;;;12.15;50.27;100607.69;4866594;29;20051;-80
2023/12/24 03:11:33;;;;;;;13.82;6.00;;;;;;;11.92;50.39;100601.06;4868632;29;20686;-80
2023/12/24 03:14:00;;;;;;;17.58;5.45;;;;;;;11.77;50.71;100598.84;4857419;29;20273;-81
2023/12/24 03:16:27;;;;;;;18.17;6.78;;;;;;;11.92;50.64;100638.31;4897795;29;20066;-81
2023/12/24 03:18:56;;;;;;;15.68;6.95;;;;;;;11.82;50.66;100638.31;4871604;29;20319;-80
2023/12/24 03:21:23;;;;;;;18.48;6.80;;;;;;;11.43;51.05;100609.13;4886595;29;20460;-80
2023/12/24 03:23:52;;;;;;;12.02;7.43;;;;;;;11.39;51.14;100626.31;4893882;29;20130;-80
2023/12/24 03:26:23;;;;;;;12.55;7.80;;;;;;;11.24;51.29;100628.56;4861396;29;20059;-80
2023/12/24 03:28:51;;;;;;;15.20;7.35;;;;;;;11.14;51.54;100617.13;4877830;28;20651;-81
2023/12/24 03:31:20;;;;;;;16.38;8.32;;;;;;;11.00;51.77;100621.00;4895674;28;20054;-78
2023/12/24 03:33:47;;;;;;;20.15;8.07;;;;;;;11.08;52.00;100645.06;4894709;28;20054;-80
2023/12/24 03:36:14;;;;;;;16.65;8.57;;;;;;;11.02;51.87;100632.34;4898474;28;20538;-81
2023/12/24 03:38:50;;;;;;;16.92;7.70;;;;;;;11.14;52.31;100659.63;4893912;28;20295;-79
2023/12/24 03:41:28;;;;;;;15.25;8.05;;;;;;;10.88;52.24;100641.53;4885444;28;20051;-78
2023/12/24 03:43:55;;;;;;;14.90;8.13;;;;;;;10.91;52.83;100675.78;4903954;28;20043;-81
2023/12/24 03:46:22;;;;;;;12.48;8.32;;;;;;;10.75;52.72;100632.16;4905660;28;20149;-82
2023/12/24 03:48:49;;;;;;;18.00;8.65;;;;;;;10.34;53.46;100579.13;4891512;28;20089;-80
2023/12/24 03:51:23;;;;;;;12.40;7.20;;;;;;;10.86;53.37;100655.94;4863059;29;20543;-81
2023/12/24 03:53:52;;;;;;;14.23;8.07;;;;;;;10.79;53.11;100650.31;4894088;29;20047;-81
2023/12/24 03:56:19;;;;;;;15.27;9.30;;;;;;;10.83;53.69;100670.34;4886820;29;20129;-79
2023/12/24 03:58:48;;;;;;;17.23;8.23;;;;;;;10.80;53.38;100667.97;4872656;28;20051;-80
2023/12/24 04:01:17;;;;;;;13.80;8.60;;;;;;;10.78;53.15;100661.94;4882348;28;20142;-80
2023/12/24 04:03:46;;;;;;;19.10;8.98;;;;;;;10.52;53.38;100636.84;4893504;28;20137;-81
2023/12/24 04:06:16;;;;;;;18.80;8.93;;;;;;;10.74;53.49;100673.78;4909057;28;20279;-79
2023/12/24 04:08:47;;;;;;;21.92;10.63;;;;;;;10.41;53.84;100633.34;4902950;28;20043;-80
2023/12/24 04:11:16;;;;;;;18.00;8.75;;;;;;;10.63;54.07;100688.03;4909509;28;20406;-79
2023/12/24 04:13:51;;;;;;;21.75;9.23;;;;;;;10.30;54.04;100659.97;4892765;28;20065;-82
2023/12/24 04:16:18;;;;;;;13.55;8.88;;;;;;;10.61;53.72;100695.28;4899795;28;20196;-79
2023/12/24 04:18:45;;;;;;;18.80;9.77;;;;;;;10.51;54.41;100705.03;4904682;28;20529;-81
2023/12/24 04:21:12;;;;;;;10.70;7.95;;;;;;;10.42;54.42;100705.81;4877767;29;20141;-82
2023/12/24 04:23:39;;;;;;;15.80;10.13;;;;;;;10.33;54.88;100717.22;4893158;29;20055;-80
2023/12/24 04:26:08;;;;;;;16.65;9.10;;;;;;;10.30;54.81;100725.47;4858841;29;20051;-80
2023/12/24 04:28:35;;;;;;;16.58;8.63;;;;;;;9.81;55.25;100669.44;4916971;28;20083;-80
2023/12/24 04:31:02;;;;;;;16.25;8.73;;;;;;;10.14;55.29;100712.63;4897847;28;20046;-81
2023/12/24 04:33:29;;;;;;;16.70;8.50;;;;;;;10.13;55.10;100716.25;4916430;28;20305;-80
2023/12/24 04:35:58;;;;;;;13.38;8.88;;;;;;;9.98;55.71;100705.97;4915009;28;20051;-79
2023/12/24 04:38:27;;;;;;;14.15;8.77;;;;;;;10.08;55.67;100713.16;4890098;28;20306;-80
2023/12/24 04:40:54;;;;;;;13.40;9.13;;;;;;;9.92;55.99;100698.53;4902103;28;20448;-81
2023/12/24 04:43:27;;;;;;;13.40;8.32;;;;;;;9.66;55.50;100665.41;4916006;28;20054;-79
2023/12/24 04:45:54;;;;;;;15.07;9.27;;;;;;;9.81;56.03;100706.56;4907526;28;20443;-80
2023/12/24 04:48:20;;;;;;;16.05;8.80;;;;;;;9.27;56.62;100644.78;4930378;28;20050;-80
2023/12/24 04:50:47;;;;;;;19.75;9.60;;;;;;;9.79;56.66;100749.09;4905334;29;20783;-79
2023/12/24 04:53:17;;;;;;;16.35;8.98;;;;;;;9.72;57.23;100739.97;4902142;29;20349;-79
2023/12/24 04:55:48;;;;;;;;;;;;;;;9.75;57.28;100746.84;4916770;29;20440;-80
2023/12/24 04:58:15;;;;;;;17.60;8.65;;;;;;;9.80;56.36;100739.34;4899066;29;20114;-79
2023/12/24 05:00:45;;;;;;;16.92;8.25;;;;;;;9.87;55.90;100719.28;4898913;28;20051;-80
2023/12/24 05:03:12;;;;;;;20.27;8.65;;;;;;;9.99;56.03;100726.22;4913254;28;20146;-80
2023/12/24 05:05:39;;;;;;;16.40;8.30;;;;;;;10.01;55.73;100728.75;4900503;28;20435;-79
2023/12/24 05:08:05;;;;;;;14.98;9.50;;;;;;;10.01;55.89;100745.50;4913265;28;20163;-80
2023/12/24 05:10:33;;;;;;;13.85;9.48;;;;;;;9.50;56.66;100679.97;4900157;28;20146;-81
2023/12/24 05:13:00;;;;;;;14.82;8.40;;;;;;;9.81;56.61;100744.53;4883928;28;20416;-81
2023/12/24 05:15:27;;;;;;;17.30;7.88;;;;;;;9.51;57.28;100702.81;4924254;28;20391;-80
2023/12/24 05:18:04;;;;;;;16.02;8.88;;;;;;;9.78;57.23;100746.56;4914354;28;20074;-81
2023/12/24 05:20:36;;;;;;;18.90;8.65;;;;;;;9.82;57.11;100753.31;4866968;28;20142;-80
2023/12/24 05:23:06;;;;;;;14.57;8.20;;;;;;;9.72;56.90;100752.41;4874770;29;20051;-81
2023/12/24 05:25:33;;;;;;;12.50;8.77;;;;;;;9.60;57.29;100757.72;4893907;29;20071;-80
2023/12/24 05:28:00;;;;;;;17.48;8.85;;;;;;;9.62;57.25;100750.50;4893548;29;20062;-82
2023/12/24 05:30:27;;;;;;;16.63;9.18;;;;;;;9.77;57.38;100769.59;4871703;28;20082;-81
2023/12/24 05:32:55;;;;;;;12.25;7.55;;;;;;;9.65;58.12;100775.91;4904114;28;20051;-81
2023/12/24 05:35:23;;;;;;;18.45;8.63;;;;;;;9.61;57.60;100770.03;4912484;28;20458;-81
2023/12/24 05:37:53;;;;;;;11.90;7.78;;;;;;;9.61;57.69;100769.16;4913304;28;20130;-79
2023/12/24 05:40:20;;;;;;;14.20;7.85;;;;;;;9.57;57.64;100775.72;4911913;28;20062;-80
2023/12/24 05:42:46;;;;;;;17.90;8.20;;;;;;;9.53;57.69;100779.56;4908244;28;20642;-82
2023/12/24 05:45:13;;;;;;;19.90;8.55;;;;;;;9.47;58.11;100772.97;4906312;28;20406;-81
2023/12/24 05:47:41;;;;;;;18.77;7.82;;;;;;;9.28;58.13;100751.59;4916037;28;20051;-81
2023/12/24 05:50:09;;;;;;;16.08;8.15;;;;;;;9.33;58.56;100774.09;4893556;29;20439;-82
2023/12/24 05:52:39;;;;;;;15.95;7.50;;;;;;;9.29;58.87;100769.16;4897629;29;20035;-79
2023/12/24 05:55:07;;;;;;;14.77;8.32;;;;;;;9.22;57.95;100709.69;4891301;29;20053;-80
2023/12/24 05:57:35;;;;;;;23.63;9.40;;;;;;;9.36;58.33;100749.16;4903486;29;20477;-81
2023/12/24 06:00:05;;;;;;;16.95;9.60;;;;;;;9.57;57.95;100789.78;4880325;29;20463;-79
2023/12/24 06:02:32;;;;;;;13.30;7.72;;;;;;;9.30;58.48;100763.75;4887870;29;20494;-80
2023/12/24 06:05:00;;;;;;;17.13;8.48;;;;;;;9.35;58.80;100764.22;4880327;29;20101;-79
2023/12/24 06:07:26;;;;;;;12.75;8.05;;;;;;;9.51;58.61;100789.44;4895671;29;20058;-83
2023/12/24 06:09:53;;;;;;;18.77;8.98;;;;;;;9.08;58.93;100732.84;4888748;29;20055;-80
2023/12/24 06:12:20;;;;;;;14.82;7.78;;;;;;;9.05;59.11;100748.13;4897090;29;20475;-82
2023/12/24 06:14:47;;;;;;;17.77;9.02;;;;;;;9.34;58.75;100774.91;4917144;29;20403;-81
2023/12/24 06:17:17;;;;;;;17.50;8.55;;;;;;;9.43;58.55;100792.72;4885467;29;20043;-81
2023/12/24 06:19:44;;;;;;;12.98;7.95;;;;;;;9.43;59.11;100807.78;4922329;29;20062;-80
2023/12/24 06:22:12;;;;;;;20.02;9.65;;;;;;;9.13;58.87;100770.41;4897080;29;20047;-80
2023/12/24 06:24:42;;;;;;;14.00;7.47;;;;;;;9.24;59.70;100788.06;4926444;28;20073;-82
2023/12/24 06:27:10;;;;;;;14.32;7.55;;;;;;;9.09;59.79;100784.00;4899718;28;20058;-79
2023/12/24 06:29:37;;;;;;;17.00;8.15;;;;;;;9.12;58.80;100776.63;4915060;28;20062;-80
2023/12/24 06:32:04;;;;;;;13.50;8.05;;;;;;;9.23;59.55;100780.25;4905544;29;20087;-81
2023/12/24 06:34:31;;;;;;;17.48;8.05;;;;;;;9.27;59.60;100813.47;4881036;29;20067;-80
2023/12/24 06:36:58;;;;;;;15.02;8.40;;;;;;;8.64;59.59;100720.50;4886771;29;20058;-81
2023/12/24 06:39:25;;;;;;;16.65;8.95;;;;;;;9.15;59.96;100826.75;4865645;28;20520;-81
2023/12/24 06:41:53;;;;;;;14.43;8.02;;;;;;;8.88;60.49;100813.00;4872783;29;20058;-80
2023/12/24 06:44:20;;;;;;;16.08;8.40;;;;;;;8.84;60.77;100822.19;4879946;29;20111;-81
2023/12/24 06:46:51;;;;;;;17.73;8.88;;;;;;;8.94;60.83;100845.16;4872880;29;20126;-80
2023/12/24 06:49:19;;;;;;;19.08;9.15;;;;;;;9.09;60.43;100855.50;4873402;29;20102;-81
2023/12/24 06:51:45;;;;;;;17.30;8.57;;;;;;;8.93;60.70;100826.72;4866358;29;20498;-80
2023/12/24 06:54:12;;;;;;;22.73;8.77;;;;;;;9.15;60.17;100855.88;4889885;29;20544;-80
2023/12/24 06:56:40;;;;;;;13.23;8.35;;;;;;;9.00;60.53;100833.22;4908273;29;20472;-79
2023/12/24 06:59:07;;;;;;;23.13;9.63;;;;;;;9.13;60.48;100852.50;4901483;29;20047;-80
2023/12/24 07:01:34;;;;;;;17.20;8.27;;;;;;;9.06;60.75;100864.53;4892310;29;20427;-81
2023/12/24 07:04:00;;;;;;;19.02;8.52;;;;;;;8.96;60.94;100866.22;4905053;29;20142;-79
2023/12/24 07:06:31;;;;;;;12.95;7.88;;;;;;;9.07;61.08;100866.22;4905910;29;20126;-80
2023/12/24 07:08:59;;;;;;;14.18;8.32;;;;;;;9.03;61.39;100859.50;4896846;29;20564;-79
2023/12/24 07:11:29;;;;;;;18.70;9.35;;;;;;;9.02;61.34;100868.38;4885643;29;20043;-80
2023/12/24 07:13:56;;;;;;;19.13;7.50;;;;;;;8.97;61.33;100859.97;4885172;29;20515;-78
2023/12/24 07:16:23;;;;;;;15.82;8.18;;;;;;;8.70;61.38;100816.13;4915363;29;20059;-80
2023/12/24 07:18:50;;;;;;;16.90;9.13;;;;;;;8.91;61.64;100850.69;4892270;29;20056;-79
2023/12/24 07:21:17;;;;;;;17.70;9.57;;;;;;;9.04;61.42;100855.88;4858821;29;20044;-81
2023/12/24 07:23:43;;;;;;;16.15;8.00;;;;;;;8.99;61.73;100856.22;4889344;29;20048;-81
2023/12/24 07:26:12;;;;;;;22.33;8.60;;;;;;;8.88;61.93;100850.06;4863971;29;20051;-82
2023/12/24 07:28:39;;;;;;;16.55;8.88;;;;;;;8.77;62.06;100843.81;4876178;28;20510;-81
2023/12/24 07:31:06;;;;;;;14.48;8.98;;;;;;;8.95;61.51;100872.47;4906567;29;20070;-81
2023/12/24 07:33:36;;;;;;;14.30;8.38;;;;;;;8.93;62.10;100858.50;4892715;28;20048;-80
2023/12/24 07:36:03;;;;;;;19.40;9.02;;;;;;;8.89;61.94;100857.06;4789462;29;20061;-80
2023/12/24 07:38:30;;;;;;;17.88;9.55;;;;;;;9.15;61.36;100871.78;4886691;29;20503;-81
2023/12/24 07:40:57;;;;;;;18.35;9.70;;;;;;;8.93;61.10;100817.00;4918817;29;20114;-79
2023/12/24 07:43:24;;;;;;;20.55;9.90;;;;;;;9.23;62.15;100870.31;4903369;29;20055;-80
2023/12/24 07:45:52;;;;;;;20.33;9.15;;;;;;;9.20;61.22;100876.72;4902928;29;20143;-79
2023/12/24 07:48:19;;;;;;;17.23;9.10;;;;;;;8.95;61.05;100822.16;4925368;29;20066;-80
2023/12/24 07:50:46;;;;;;;22.70;9.13;;;;;;;9.31;61.33;100883.78;4898670;29;20050;-80
2023/12/24 07:53:12;;;;;;;22.83;9.32;;;;;;;9.11;61.68;100862.38;4887007;29;20090;-78
2023/12/24 07:55:40;;;;;;;19.42;9.20;;;;;;;9.12;62.58;100861.41;4894281;29;20080;-80
2023/12/24 07:58:07;;;;;;;17.38;8.98;;;;;;;9.23;62.69;100886.22;4909668;29;20560;-80
2023/12/24 08:00:35;;;;;;;22.08;9.75;;;;;;;9.37;61.88;100899.22;4932985;28;20043;-79
2023/12/24 08:03:02;;;;;;;23.80;9.98;;;;;;;9.38;62.25;100917.63;4915198;29;20508;-79
2023/12/24 08:05:32;;;;;;;17.35;9.00;;;;;;;9.29;62.81;100893.66;4895797;29;20043;-82
2023/12/24 08:07:58;;;;;;;18.77;9.57;;;;;;;9.46;62.37;100898.47;4883993;29;20130;-82
2023/12/24 08:10:26;;;;;;;21.98;10.30;;;;;;;9.49;61.66;100898.25;4896463;29;20046;-80
2023/12/24 08:12:52;;;;;;;13.75;9.48;;;;;;;9.61;61.00;100901.69;4913873;29;20329;-80
2023/12/24 08:15:34;;;;;;;17.25;9.25;;;;;;;9.65;61.37;100912.91;4893308;29;20721;-80
2023/12/24 08:18:07;;;;;;;21.88;10.10;;;;;;;9.56;61.38;100898.59;4898118;29;20107;-81
2023/12/24 08:20:34;;;;;;;26.73;10.23;;;;;;;9.56;60.89;100894.16;4895558;29;20480;-80
2023/12/24 08:23:02;;;;;;;18.83;9.98;;;;;;;9.67;61.53;100908.34;4898239;29;20113;-80
2023/12/24 08:25:29;;;;;;;15.10;8.20;;;;;;;9.71;62.38;100923.00;4906378;29;20051;-79
2023/12/24 08:27:58;;;;;;;23.00;11.15;;;;;;;9.53;62.26;100894.38;4885024;29;20047;-81
2023/12/24 08:30:29;;;;;;;17.77;9.30;;;;;;;9.92;61.26;100942.50;4900947;28;20054;-81
2023/12/24 08:32:56;;;;;;;19.92;11.38;;;;;;;9.98;62.13;100935.88;4915652;28;20324;-80
2023/12/24 08:35:23;;;;;;;23.05;12.15;;;;;;;9.99;61.37;100914.53;4911207;28;20042;-79
2023/12/24 08:37:50;;;;;;;24.77;9.77;;;;;;;10.07;60.60;100924.50;4919821;28;20759;-81
2023/12/24 08:40:23;;;;;;;20.23;10.45;;;;;;;9.95;60.62;100894.53;4916503;28;20499;-81
2023/12/24 08:42:51;;;;;;;20.13;10.05;;;;;;;10.27;60.72;100952.06;4914671;28;20902;-80
2023/12/24 08:45:21;;;;;;;17.33;9.20;;;;;;;10.31;60.68;100958.81;4893964;29;20047;-80
2023/12/24 08:47:48;;;;;;;22.90;10.63;;;;;;;10.39;59.93;100966.16;4914212;29;20063;-80
2023/12/24 08:50:20;;;;;;;23.08;11.50;;;;;;;10.40;60.60;100967.84;4902241;29;20492;-79
2023/12/24 08:52:48;;;;;;;18.00;9.82;;;;;;;10.47;60.16;100956.59;4876105;28;20538;-80
2023/12/24 08:55:18;;;;;;;29.42;11.32;;;;;;;10.43;59.57;100931.28;4920110;29;20048;-79
2023/12/24 08:57:48;;;;;;;19.75;9.75;;;;;;;10.60;59.91;100959.06;4868888;29;20058;-81
2023/12/24 09:00:17;;;;;;;25.20;11.52;;;;;;;10.57;59.54;100947.88;4901660;28;20209;-79
2023/12/24 09:02:44;;;;;;;19.90;9.93;;;;;;;10.74;59.30;100979.16;4924820;28;20205;-80
2023/12/24 09:05:11;;;;;;;27.27;11.48;;;;;;;10.78;59.26;100987.75;4906119;28;20078;-80
2023/12/24 09:07:43;;;;;;;24.88;9.82;;;;;;;10.90;59.78;100992.03;4873348;29;20047;-80
2023/12/24 09:10:13;;;;;;;24.67;11.35;;;;;;;10.39;58.70;100902.47;4892780;29;20314;-80
2023/12/24 09:12:40;;;;;;;22.88;10.45;;;;;;;10.99;58.84;101012.47;4887151;29;20055;-79
2023/12/24 09:15:07;;;;;;;19.48;10.20;;;;;;;10.17;59.19;100863.56;4886995;29;20378;-79
2023/12/24 09:17:34;;;;;;;21.55;11.20;;;;;;;11.13;59.30;101013.97;4919414;29;20288;-79
2023/12/24 09:20:01;;;;;;;13.57;8.95;;;;;;;11.22;57.97;100985.78;4880677;29;20469;-81
2023/12/24 09:22:35;;;;;;;19.25;8.65;;;;;;;11.52;57.18;101020.34;4895920;29;20471;-81
2023/12/24 09:25:01;;;;;;;15.88;7.97;;;;;;;11.64;56.63;101020.28;4881457;29;20052;-78
2023/12/24 09:27:28;;;;;;;21.33;9.07;;;;;;;11.72;56.41;101034.59;4918350;28;20055;-81
2023/12/24 09:29:55;;;;;;;19.65;9.05;;;;;;;11.69;55.92;101021.53;4912548;28;20062;-80
2023/12/24 09:32:22;;;;;;;21.30;9.00;;;;;;;11.16;56.06;100933.97;4913454;28;20413;-80
2023/12/24 09:34:52;;;;;;;14.65;7.43;;;;;;;11.76;54.71;101011.22;4904148;29;20444;-81
2023/12/24 09:37:20;;;;;;;19.27;8.52;;;;;;;11.58;54.66;100965.81;4897194;29;20123;-80
2023/12/24 09:39:48;;;;;;;14.93;9.30;;;;;;;12.14;54.96;101041.66;4897016;29;20352;-79
2023/12/24 09:42:16;;;;;;;17.38;8.57;;;;;;;12.31;53.97;101038.31;4868520;29;20124;-80
2023/12/24 09:44:42;;;;;;;12.60;8.57;;;;;;;12.44;53.70;101035.38;4884722;29;20460;-81
2023/12/24 09:47:12;;;;;;;19.50;9.63;;;;;;;12.53;53.05;101039.06;4895939;29;20741;-80
2023/12/24 09:49:42;;;;;;;17.73;9.48;;;;;;;12.60;52.34;101037.53;4868792;29;20051;-80
2023/12/24 09:52:10;;;;;;;16.65;9.20;;;;;;;12.60;52.31;101032.19;4902396;29;20422;-80
2023/12/24 09:54:39;;;;;;;15.73;8.38;;;;;;;12.47;52.22;101011.13;4888469;29;20051;-81
2023/12/24 09:57:07;;;;;;;13.95;7.57;;;;;;;12.23;52.57;100974.25;4931551;28;20055;-81
2023/12/24 09:59:37;;;;;;;16.63;8.30;;;;;;;12.71;52.13;101036.53;4894279;28;20055;-82
2023/12/24 10:02:04;;;;;;;20.50;8.68;;;;;;;12.79;51.32;101032.22;4909991;28;20130;-80
2023/12/24 10:04:31;;;;;;;15.60;8.07;;;;;;;12.76;50.73;101026.31;4920485;28;20327;-80
2023/12/24 10:06:58;;;;;;;15.45;8.38;;;;;;;12.86;50.86;101028.97;4894286;29;20321;-83
2023/12/24 10:09:47;;;;;;;24.40;8.27;;;;;;;13.05;49.54;101037.78;4879917;29;20487;-81
2023/12/24 10:12:15;;;;;;;16.35;7.75;;;;;;;13.04;50.21;101025.44;4898067;29;20066;-81
2023/12/24 10:14:54;;;;;;;23.88;8.40;;;;;;;12.71;49.78;100965.44;4902181;29;20047;-81
2023/12/24 10:17:32;;;;;;;14.80;7.45;;;;;;;13.08;49.66;101025.16;4899362;29;20122;-80
2023/12/24 10:20:03;;;;;;;21.30;9.02;;;;;;;13.12;49.80;101027.41;4902033;29;20359;-81
2023/12/24 10:22:30;;;;;;;17.83;7.95;;;;;;;13.18;49.54;101024.19;4904181;29;20051;-81
2023/12/24 10:25:06;;;;;;;24.60;9.40;;;;;;;13.17;49.13;101022.47;4918878;29;20059;-80
2023/12/24 10:27:36;;;;;;;17.85;8.30;;;;;;;13.16;49.05;101011.97;4910469;28;20515;-82
2023/12/24 10:30:12;;;;;;;16.38;8.38;;;;;;;13.05;49.26;100995.13;4918307;28;20241;-81
2023/12/24 10:32:46;;;;;;;18.23;7.53;;;;;;;12.81;48.38;100925.47;4923912;28;20466;-82
2023/12/24 10:35:23;;;;;;;14.68;7.20;;;;;;;13.41;48.43;101019.38;4915470;28;20703;-80
2023/12/24 10:37:50;;;;;;;16.13;6.93;;;;;;;13.39;48.32;101012.50;4907422;28;20047;-82
2023/12/24 10:40:20;;;;;;;18.30;7.70;;;;;;;13.44;47.65;101005.72;4919893;28;20046;-81
2023/12/24 10:42:47;;;;;;;14.20;7.20;;;;;;;13.26;48.02;100959.47;4925578;28;20062;-81
2023/12/24 10:45:14;;;;;;;23.55;7.20;;;;;;;13.52;47.62;100994.38;4882174;28;20538;-80
2023/12/24 10:47:44;;;;;;;14.57;6.55;;;;;;;13.53;47.75;100992.53;4900815;28;20105;-80
2023/12/24 10:50:11;;;;;;;12.95;6.72;;;;;;;13.43;47.88;100977.41;4937834;28;20157;-82
2023/12/24 10:52:38;;;;;;;17.08;6.65;;;;;;;13.44;48.02;100989.72;4920744;28;20562;-80
2023/12/24 10:55:06;;;;;;;12.23;5.70;;;;;;;13.30;48.58;100974.22;4907708;29;20117;-80
2023/12/24 10:58:12;;;;;;;17.25;6.88;;;;;;;13.42;48.31;100975.72;4887045;29;20432;-81
2023/12/24 11:00:40;;;;;;;12.05;5.75;;;;;;;13.38;48.68;100958.31;4877541;29;20054;-80
2023/12/24 11:03:10;;;;;;;13.63;6.70;;;;;;;13.43;48.79;100955.22;4895748;29;20503;-81
2023/12/24 11:05:45;;;;;;;16.40;5.65;;;;;;;13.50;48.51;100955.50;4913607;29;20242;-81
2023/12/24 11:08:21;;;;;;;12.77;4.78;;;;;;;13.20;48.18;100896.06;4901144;29;20070;-80
2023/12/24 11:11:06;;;;;;;19.13;6.22;;;;;;;13.51;47.84;100925.16;4896171;29;20124;-80
2023/12/24 11:13:41;;;;;;;15.52;6.18;;;;;;;13.29;48.65;100905.88;4884719;29;20064;-83
2023/12/24 11:16:11;;;;;;;10.70;5.95;;;;;;;13.36;49.09;100938.13;4894071;29;20389;-80
2023/12/24 11:18:45;;;;;;;14.23;7.28;;;;;;;13.50;48.68;100968.81;4910290;29;20154;-80
2023/12/24 11:21:15;;;;;;;19.48;7.30;;;;;;;13.22;48.70;100908.25;4871854;29;20543;-81
2023/12/24 11:24:08;;;;;;;21.20;7.30;;;;;;;13.65;47.89;100951.34;4892070;29;20127;-82
2023/12/24 11:26:35;;;;;;;16.02;7.25;;;;;;;13.67;48.20;100965.38;4911103;28;20065;-81
2023/12/24 11:29:40;;;;;;;19.80;6.60;;;;;;;13.64;48.21;100957.66;4903867;29;20102;-80
2023/12/24 11:32:32;;;;;;;19.70;6.75;;;;;;;13.58;48.73;100951.09;4910939;29;20059;-81